Time;durP1;ratioP1;P1;durP2;ratioP2;P2;SDS_P1;SDS_P2;PMS_P1;PMS_P2;Temp;Humidity;BMP_temperature;BMP_pressure;BME280_temperature;BME280_humidity;BME280_pressure;Samples;Min_cycle;Max_cycle;Signal;HPM_P1;HPM_P2
2022/03/22 00:02:16;;;;;;;;;;;6.30;88.60;;;;;;5064362;28;19920;-82
2022/03/22 00:04:41;;;;;;;;;;;6.30;88.30;;;;;;5072397;28;19916;-82
2022/03/22 00:07:08;;;;;;;;;;;6.30;88.30;;;;;;5076446;28;19986;-82
2022/03/22 00:09:34;;;;;;;;;;;6.30;87.90;;;;;;5075332;28;19931;-81
2022/03/22 00:11:59;;;;;;;;;;;6.20;88.20;;;;;;5077011;28;19909;-82
2022/03/22 00:14:25;;;;;;;;;;;6.20;87.50;;;;;;5090206;28;20385;-82
2022/03/22 00:16:53;;;;;;;;;;;6.20;87.10;;;;;;5081440;28;19982;-82
2022/03/22 00:19:19;;;;;;;;;;;6.20;87.40;;;;;;5079180;28;19920;-82
2022/03/22 00:21:44;;;;;;;;;;;6.10;87.50;;;;;;5067504;28;20383;-82
2022/03/22 00:24:10;;;;;;;;;;;6.10;88.10;;;;;;5078275;28;19919;-82
2022/03/22 00:26:36;;;;;;;;;;;6.00;86.90;;;;;;5078287;28;20283;-82
2022/03/22 00:29:03;;;;;;;;;;;6.00;86.40;;;;;;5094748;28;19916;-82
2022/03/22 00:31:29;;;;;;;;;;;6.00;86.00;;;;;;5086009;28;19908;-82
2022/03/22 00:33:54;;;;;;;;;;;6.00;86.20;;;;;;5088613;28;20294;-82
2022/03/22 00:36:20;;;;;;;;;;;6.00;86.50;;;;;;5072983;28;19916;-82
2022/03/22 00:38:45;;;;;;;;;;;6.00;86.00;;;;;;5076269;28;19912;-82
2022/03/22 00:41:13;;;;;;;;;;;5.90;86.60;;;;;;5083129;28;19924;-82
2022/03/22 00:43:39;;;;;;;;;;;5.90;87.70;;;;;;5069222;28;19912;-81
2022/03/22 00:46:05;;;;;;;;;;;5.80;88.30;;;;;;5084194;28;19920;-82
2022/03/22 00:48:31;;;;;;;;;;;5.80;88.70;;;;;;5088160;28;19912;-82
2022/03/22 00:50:57;;;;;;;;;;;5.80;88.90;;;;;;5091135;28;19923;-82
2022/03/22 00:53:23;;;;;;;;;;;5.70;88.00;;;;;;5077450;28;19920;-82
2022/03/22 00:55:49;;;;;;;;;;;5.70;86.80;;;;;;5074130;28;19920;-82
2022/03/22 00:58:14;;;;;;;;;;;5.70;86.00;;;;;;5059421;28;19917;-82
2022/03/22 01:00:41;;;;;;;;;;;5.70;85.00;;;;;;5072356;28;19923;-82
2022/03/22 01:03:07;;;;;;;;;;;5.70;84.80;;;;;;5063194;28;19939;-82
2022/03/22 01:05:34;;;;;;;;;;;5.70;84.40;;;;;;5082697;28;19948;-81
2022/03/22 01:08:05;;;;;;;;;;;5.70;83.80;;;;;;5069037;28;19962;-82
2022/03/22 01:10:32;;;;;;;;;;;5.70;82.10;;;;;;5078094;28;19924;-82
2022/03/22 01:12:57;;;;;;;;;;;5.70;81.50;;;;;;5075862;28;19920;-82
2022/03/22 01:15:32;;;;;;;;;;;5.70;82.40;;;;;;5084890;28;20343;-82
2022/03/22 01:17:59;;;;;;;;;;;5.70;83.10;;;;;;5051169;28;19920;-81
2022/03/22 01:20:26;;;;;;;;;;;5.60;84.50;;;;;;5088374;28;19912;-82
2022/03/22 01:22:52;;;;;;;;;;;5.60;85.30;;;;;;5082398;28;19920;-82
2022/03/22 01:25:18;;;;;;;;;;;5.50;86.40;;;;;;5074496;28;19920;-82
2022/03/22 01:27:46;;;;;;;;;;;5.50;87.20;;;;;;5076767;28;19919;-82
2022/03/22 01:30:12;;;;;;;;;;;5.40;87.60;;;;;;5085834;28;19923;-82
2022/03/22 01:32:38;;;;;;;;;;;5.40;88.10;;;;;;5073557;28;19924;-82
2022/03/22 01:35:04;;;;;;;;;;;5.30;88.40;;;;;;5073822;28;19908;-82
2022/03/22 01:37:30;;;;;;;;;;;5.30;88.70;;;;;;5073760;28;20362;-82
2022/03/22 01:39:56;;;;;;;;;;;5.30;88.70;;;;;;5073609;28;19915;-81
2022/03/22 01:42:22;;;;;;;;;;;5.20;88.00;;;;;;5081549;28;19947;-81
2022/03/22 01:44:51;;;;;;;;;;;5.20;87.70;;;;;;5075006;28;19928;-82
2022/03/22 01:47:18;;;;;;;;;;;5.20;87.50;;;;;;5066921;28;19924;-82
2022/03/22 01:49:44;;;;;;;;;;;5.20;86.30;;;;;;5082310;28;19931;-82
2022/03/22 01:52:17;;;;;;;;;;;5.20;83.20;;;;;;5084623;28;19912;-81
2022/03/22 01:54:43;;;;;;;;;;;5.30;83.50;;;;;;5074491;28;19912;-82
2022/03/22 01:57:10;;;;;;;;;;;5.20;83.20;;;;;;5080289;28;19920;-82
2022/03/22 01:59:35;;;;;;;;;;;5.20;84.20;;;;;;5075198;28;19939;-82
2022/03/22 02:07:31;;;;;;;;;;;5.10;85.00;;;;;;5071185;28;20281;-82
2022/03/22 02:09:57;;;;;;;;;;;5.00;85.70;;;;;;5059326;28;20410;-81
2022/03/22 02:12:23;;;;;;;;;;;5.00;85.40;;;;;;5060634;28;19916;-82
2022/03/22 02:14:48;;;;;;;;;;;5.00;86.10;;;;;;5067788;28;20449;-82
2022/03/22 02:17:14;;;;;;;;;;;4.90;87.80;;;;;;5081305;28;19916;-82
2022/03/22 02:19:40;;;;;;;;;;;4.90;88.60;;;;;;5070582;28;19917;-81
2022/03/22 02:22:06;;;;;;;;;;;4.80;88.80;;;;;;5075673;28;19916;-82
2022/03/22 02:24:32;;;;;;;;;;;4.70;88.70;;;;;;5084527;28;20011;-81
2022/03/22 02:26:57;;;;;;;;;;;4.70;88.80;;;;;;5060203;28;19956;-82
2022/03/22 02:29:23;;;;;;;;;;;4.60;89.60;;;;;;5073112;28;19920;-82
2022/03/22 02:31:48;;;;;;;;;;;4.60;90.50;;;;;;5072046;28;19916;-81
2022/03/22 02:34:14;;;;;;;;;;;4.60;90.80;;;;;;5057731;28;19924;-81
2022/03/22 02:36:39;;;;;;;;;;;4.50;90.80;;;;;;5079768;28;19912;-82
2022/03/22 02:39:05;;;;;;;;;;;4.50;90.20;;;;;;5083466;28;20045;-81
2022/03/22 02:41:32;;;;;;;;;;;4.50;90.50;;;;;;5065938;28;20354;-82
2022/03/22 02:43:57;;;;;;;;;;;4.40;90.60;;;;;;5076490;28;19920;-82
2022/03/22 02:46:23;;;;;;;;;;;4.40;90.60;;;;;;5080751;28;19920;-81
2022/03/22 02:48:49;;;;;;;;;;;4.30;90.80;;;;;;5072518;28;19917;-82
2022/03/22 02:51:14;;;;;;;;;;;4.30;91.50;;;;;;5073695;28;19913;-82
2022/03/22 02:53:40;;;;;;;;;;;4.20;92.20;;;;;;5072859;28;19948;-82
2022/03/22 02:56:05;;;;;;;;;;;4.20;92.80;;;;;;5082877;28;19958;-82
2022/03/22 02:58:33;;;;;;;;;;;4.10;93.40;;;;;;5076215;28;19924;-82
2022/03/22 03:00:58;;;;;;;;;;;4.10;93.70;;;;;;5096144;28;19970;-81
2022/03/22 03:03:24;;;;;;;;;;;4.10;94.30;;;;;;5064576;28;19916;-82
2022/03/22 03:05:50;;;;;;;;;;;4.10;94.30;;;;;;5075029;28;20031;-81
2022/03/22 03:08:16;;;;;;;;;;;4.10;94.60;;;;;;5083455;28;19918;-82
2022/03/22 03:10:42;;;;;;;;;;;4.00;94.80;;;;;;5051302;28;19920;-82
2022/03/22 03:13:08;;;;;;;;;;;4.00;95.00;;;;;;5077588;28;19920;-82
2022/03/22 03:15:33;;;;;;;;;;;3.90;94.90;;;;;;5085767;28;20270;-82
2022/03/22 03:17:59;;;;;;;;;;;3.80;95.20;;;;;;5085560;28;19938;-81
2022/03/22 03:20:25;;;;;;;;;;;3.70;95.10;;;;;;5071317;28;20007;-81
2022/03/22 03:22:51;;;;;;;;;;;3.60;95.40;;;;;;5063772;28;20298;-81
2022/03/22 03:25:18;;;;;;;;;;;3.50;95.90;;;;;;5099519;28;19912;-81
2022/03/22 03:27:43;;;;;;;;;;;3.50;96.40;;;;;;5086877;28;19916;-82
2022/03/22 03:30:09;;;;;;;;;;;3.40;96.90;;;;;;5077012;28;19965;-82
2022/03/22 03:32:34;;;;;;;;;;;3.40;97.00;;;;;;5060896;28;19916;-81
2022/03/22 03:35:00;;;;;;;;;;;3.30;97.10;;;;;;5056920;28;19923;-81
2022/03/22 03:37:28;;;;;;;;;;;3.30;97.00;;;;;;5091145;28;19944;-82
2022/03/22 03:39:54;;;;;;;;;;;3.20;97.30;;;;;;5069493;28;20413;-82
2022/03/22 03:42:19;;;;;;;;;;;3.10;97.80;;;;;;5081239;28;19916;-81
2022/03/22 03:47:29;;;;;;;;;;;3.10;99.40;;;;;;5086348;28;19923;-82
2022/03/22 03:49:56;;;;;;;;;;;3.00;99.90;;;;;;5091545;28;20065;-82
2022/03/22 03:52:23;;;;;;;;;;;3.10;99.90;;;;;;5091228;28;19967;-82
2022/03/22 03:54:49;;;;;;;;;;;3.10;99.90;;;;;;5078332;28;19924;-82
2022/03/22 03:57:15;;;;;;;;;;;3.00;99.90;;;;;;5082513;28;19923;-81
2022/03/22 03:59:40;;;;;;;;;;;3.10;99.90;;;;;;5089947;28;19937;-82
2022/03/22 04:02:06;;;;;;;;;;;3.10;99.90;;;;;;5081597;28;20022;-81
2022/03/22 04:04:32;;;;;;;;;;;3.10;99.90;;;;;;5060437;28;19923;-81
2022/03/22 04:06:58;;;;;;;;;;;3.10;99.90;;;;;;5083978;28;19924;-82
2022/03/22 04:09:23;;;;;;;;;;;3.20;99.90;;;;;;5079858;28;20398;-81
2022/03/22 04:11:49;;;;;;;;;;;3.20;99.90;;;;;;5055174;28;19988;-82
2022/03/22 04:14:14;;;;;;;;;;;3.20;99.90;;;;;;5087758;28;19920;-81
2022/03/22 04:16:41;;;;;;;;;;;3.20;99.90;;;;;;5087770;28;19912;-82
2022/03/22 04:19:08;;;;;;;;;;;3.20;99.90;;;;;;5069448;28;20027;-82
2022/03/22 04:21:37;;;;;;;;;;;3.20;99.90;;;;;;5086834;28;19995;-82
2022/03/22 04:24:10;;;;;;;;;;;3.20;99.90;;;;;;5075079;28;19912;-82
2022/03/22 04:26:36;;;;;;;;;;;3.00;99.90;;;;;;5061741;28;19924;-82
2022/03/22 04:34:32;;;;;;;;;;;2.70;99.90;;;;;;5081099;28;19919;-82
2022/03/22 04:36:58;;;;;;;;;;;2.60;99.90;;;;;;5059447;28;20378;-81
2022/03/22 04:39:24;;;;;;;;;;;2.50;99.90;;;;;;5087391;28;19985;-82
2022/03/22 04:41:51;;;;;;;;;;;2.40;99.90;;;;;;5071196;28;19917;-81
2022/03/22 04:44:17;;;;;;;;;;;2.40;99.90;;;;;;5057886;28;19912;-82
2022/03/22 04:46:43;;;;;;;;;;;2.30;99.90;;;;;;5086493;28;19916;-82
2022/03/22 04:49:08;;;;;;;;;;;2.30;99.90;;;;;;5086256;28;19977;-81
2022/03/22 04:57:02;;;;;;;;;;;2.10;99.90;;;;;;5076614;22;19931;-81
2022/03/22 04:59:28;;;;;;;;;;;2.10;99.90;;;;;;5027477;28;20419;-81
2022/03/22 05:01:53;;;;;;;;;;;2.00;99.90;;;;;;5037957;28;19951;-82
2022/03/22 05:04:19;;;;;;;;;;;2.00;99.90;;;;;;5056695;28;19919;-82
2022/03/22 05:06:45;;;;;;;;;;;2.00;99.90;;;;;;5044185;28;19943;-82
2022/03/22 05:09:11;;;;;;;;;;;2.00;99.90;;;;;;5052081;28;20371;-82
2022/03/22 05:11:36;;;;;;;;;;;2.00;99.90;;;;;;5056652;28;20020;-82
2022/03/22 05:14:02;;;;;;;;;;;2.00;99.90;;;;;;5055365;28;20191;-82
2022/03/22 05:16:29;;;;;;;;;;;2.00;99.90;;;;;;5043510;28;19913;-82
2022/03/22 05:18:55;;;;;;;;;;;2.00;99.90;;;;;;5054362;28;19980;-81
2022/03/22 05:21:21;;;;;;;;;;;2.00;99.90;;;;;;5047773;28;19913;-81
2022/03/22 05:23:46;;;;;;;;;;;2.00;99.90;;;;;;5037953;28;19940;-82
2022/03/22 05:26:15;;;;;;;;;;;2.00;99.90;;;;;;5032527;28;19917;-81
2022/03/22 05:28:41;;;;;;;;;;;1.90;99.90;;;;;;5030071;28;19921;-82
2022/03/22 05:31:10;;;;;;;;;;;1.90;99.90;;;;;;5051329;28;19921;-82
2022/03/22 05:33:36;;;;;;;;;;;1.90;99.90;;;;;;5054772;28;19947;-82
2022/03/22 05:36:02;;;;;;;;;;;1.90;99.90;;;;;;5041766;28;20007;-82
2022/03/22 05:38:27;;;;;;;;;;;2.00;99.90;;;;;;5045713;28;19917;-81
2022/03/22 05:40:54;;;;;;;;;;;2.00;99.90;;;;;;5041899;28;19917;-81
2022/03/22 05:43:19;;;;;;;;;;;2.00;99.90;;;;;;5040817;28;19944;-82
2022/03/22 05:45:46;;;;;;;;;;;2.00;99.90;;;;;;5035122;28;19920;-82
2022/03/22 05:48:12;;;;;;;;;;;2.00;99.90;;;;;;5031194;28;19921;-82
2022/03/22 05:50:37;;;;;;;;;;;2.00;99.90;;;;;;5032170;28;20276;-81
2022/03/22 05:53:03;;;;;;;;;;;2.00;99.90;;;;;;5037459;28;19914;-81
2022/03/22 05:55:29;;;;;;;;;;;2.00;99.90;;;;;;5039596;28;19920;-81
2022/03/22 05:57:55;;;;;;;;;;;2.10;99.90;;;;;;5040476;28;20368;-81
2022/03/22 06:00:20;;;;;;;;;;;2.10;99.90;;;;;;5036716;28;19919;-81
2022/03/22 06:02:46;;;;;;;;;;;2.10;99.90;;;;;;5028132;28;19922;-82
2022/03/22 06:05:11;;;;;;;;;;;2.20;99.90;;;;;;5016669;28;20307;-81
2022/03/22 06:10:13;;;;;;;;;;;2.30;99.90;;;;;;5145140;22;19925;-84
2022/03/22 06:12:44;;;;;;;;;;;2.30;99.90;;;;;;5018127;28;20004;-85
2022/03/22 06:15:17;;;;;;;;;;;2.30;99.90;;;;;;5011271;28;19909;-84
2022/03/22 06:17:49;;;;;;;;;;;2.40;99.90;;;;;;5018649;28;20012;-83
2022/03/22 06:20:16;;;;;;;;;;;2.50;99.90;;;;;;5001395;28;20325;-84
2022/03/22 06:22:41;;;;;;;;;;;2.50;99.90;;;;;;5022501;28;19924;-84
2022/03/22 06:25:07;;;;;;;;;;;2.70;99.90;;;;;;5016581;28;19913;-84
2022/03/22 06:27:35;;;;;;;;;;;2.70;99.90;;;;;;5017463;28;19929;-83
2022/03/22 06:30:10;;;;;;;;;;;2.80;99.90;;;;;;5019865;28;19983;-83
2022/03/22 06:32:46;;;;;;;;;;;2.90;99.90;;;;;;5021451;28;19916;-85
2022/03/22 06:35:12;;;;;;;;;;;3.00;99.90;;;;;;5024433;28;19952;-84
2022/03/22 06:37:47;;;;;;;;;;;3.10;99.90;;;;;;5024655;28;19941;-84
2022/03/22 06:40:13;;;;;;;;;;;3.20;99.90;;;;;;5022805;28;19953;-84
2022/03/22 06:42:38;;;;;;;;;;;3.30;99.90;;;;;;5021233;28;19913;-84
2022/03/22 06:45:05;;;;;;;;;;;3.40;99.90;;;;;;5026441;28;19946;-85
2022/03/22 06:47:31;;;;;;;;;;;3.50;99.90;;;;;;5018989;28;19913;-84
2022/03/22 06:49:56;;;;;;;;;;;3.50;99.90;;;;;;5015521;28;19917;-84
2022/03/22 06:52:22;;;;;;;;;;;3.60;99.90;;;;;;5017037;28;20370;-83
2022/03/22 06:54:47;;;;;;;;;;;3.70;99.90;;;;;;5021541;28;19917;-85
2022/03/22 06:57:13;;;;;;;;;;;3.70;99.90;;;;;;5008934;28;19917;-84
2022/03/22 06:59:38;;;;;;;;;;;3.80;99.90;;;;;;5023045;28;19968;-84
2022/03/22 07:02:05;;;;;;;;;;;3.80;99.90;;;;;;5037730;28;20360;-84
2022/03/22 07:04:30;;;;;;;;;;;3.90;99.70;;;;;;5025261;28;20453;-86
2022/03/22 07:06:56;;;;;;;;;;;3.90;97.40;;;;;;5027139;28;19971;-84
2022/03/22 07:09:22;;;;;;;;;;;3.90;96.80;;;;;;5022785;28;20437;-83
2022/03/22 07:11:49;;;;;;;;;;;4.00;96.70;;;;;;5015135;28;19952;-85
2022/03/22 07:14:25;;;;;;;;;;;4.00;96.60;;;;;;5015748;28;19921;-84
2022/03/22 07:16:51;;;;;;;;;;;4.10;96.40;;;;;;5027211;28;19959;-85
2022/03/22 07:19:17;;;;;;;;;;;4.20;96.40;;;;;;5021148;28;19937;-84
2022/03/22 07:21:45;;;;;;;;;;;4.20;96.20;;;;;;5034479;28;19917;-85
2022/03/22 07:24:11;;;;;;;;;;;4.40;96.10;;;;;;5040204;28;19924;-85
2022/03/22 07:26:37;;;;;;;;;;;4.40;96.20;;;;;;5034605;28;19920;-85
2022/03/22 07:29:03;;;;;;;;;;;4.50;96.40;;;;;;5048626;28;19913;-84
2022/03/22 07:31:28;;;;;;;;;;;4.60;96.90;;;;;;5033677;28;19913;-83
2022/03/22 07:33:53;;;;;;;;;;;4.70;96.40;;;;;;5033798;28;19940;-84
2022/03/22 07:36:19;;;;;;;;;;;4.80;96.10;;;;;;5039537;28;19920;-85
2022/03/22 07:38:44;;;;;;;;;;;4.90;95.50;;;;;;5033421;28;20000;-84
2022/03/22 07:41:12;;;;;;;;;;;5.00;95.10;;;;;;5030775;28;20392;-84
2022/03/22 07:43:37;;;;;;;;;;;5.00;94.10;;;;;;5048332;28;19920;-85
2022/03/22 07:46:06;;;;;;;;;;;5.10;93.40;;;;;;5033082;28;19913;-84
2022/03/22 07:48:32;;;;;;;;;;;5.20;92.80;;;;;;5047842;28;20011;-84
2022/03/22 07:53:42;;;;;;;;;;;5.40;92.50;;;;;;5044503;28;19924;-84
2022/03/22 07:56:08;;;;;;;;;;;5.60;91.30;;;;;;5024572;28;19913;-84
2022/03/22 07:58:33;;;;;;;;;;;5.60;90.60;;;;;;5017558;28;19928;-85
2022/03/22 08:00:59;;;;;;;;;;;5.70;90.50;;;;;;5022038;28;20288;-85
2022/03/22 08:03:26;;;;;;;;;;;5.80;90.60;;;;;;5023627;28;19948;-84
2022/03/22 08:05:52;;;;;;;;;;;5.90;90.80;;;;;;5018250;28;19943;-84
2022/03/22 08:08:17;;;;;;;;;;;6.00;91.10;;;;;;5015971;28;20003;-86
2022/03/22 08:10:44;;;;;;;;;;;6.10;91.40;;;;;;5034816;28;19924;-85
2022/03/22 08:13:10;;;;;;;;;;;6.20;91.80;;;;;;5034282;28;19913;-86
2022/03/22 08:15:35;;;;;;;;;;;6.30;90.90;;;;;;5034893;28;19939;-85
2022/03/22 08:18:01;;;;;;;;;;;6.40;87.20;;;;;;5022501;28;19944;-85
2022/03/22 08:20:28;;;;;;;;;;;6.50;82.10;;;;;;5015464;28;19943;-85
2022/03/22 08:22:54;;;;;;;;;;;6.70;75.30;;;;;;5035951;28;19917;-86
2022/03/22 08:25:30;;;;;;;;;;;6.80;73.40;;;;;;5036537;28;20027;-86
2022/03/22 08:27:57;;;;;;;;;;;6.90;73.90;;;;;;5032203;28;19953;-85
2022/03/22 08:30:23;;;;;;;;;;;7.00;72.60;;;;;;5017519;28;19933;-86
2022/03/22 08:32:51;;;;;;;;;;;7.10;69.80;;;;;;5015937;28;19916;-85
2022/03/22 08:35:18;;;;;;;;;;;7.20;68.50;;;;;;5016211;28;19918;-86
2022/03/22 08:37:43;;;;;;;;;;;7.40;65.80;;;;;;5029194;28;20370;-85
2022/03/22 08:40:10;;;;;;;;;;;7.50;65.70;;;;;;5024731;28;19924;-85
2022/03/22 08:42:37;;;;;;;;;;;7.60;64.80;;;;;;5023014;28;19925;-85
2022/03/22 08:45:06;;;;;;;;;;;7.70;63.00;;;;;;5023905;28;20431;-86
2022/03/22 08:47:34;;;;;;;;;;;7.80;63.20;;;;;;5023855;28;19918;-85
2022/03/22 08:49:59;;;;;;;;;;;7.90;63.00;;;;;;5038008;28;19932;-85
2022/03/22 08:52:25;;;;;;;;;;;7.90;62.20;;;;;;5023644;28;19971;-85
2022/03/22 08:54:51;;;;;;;;;;;8.00;62.50;;;;;;5045394;28;19957;-85
2022/03/22 08:57:17;;;;;;;;;;;8.10;60.30;;;;;;5024624;28;20398;-86
2022/03/22 08:59:43;;;;;;;;;;;8.20;60.80;;;;;;5016811;28;19913;-85
2022/03/22 09:02:09;;;;;;;;;;;8.30;60.20;;;;;;5022033;28;19920;-85
2022/03/22 09:07:19;;;;;;;;;;;8.50;59.30;;;;;;5019494;28;20393;-85
2022/03/22 09:09:44;;;;;;;;;;;8.60;59.50;;;;;;5026276;28;20253;-86
2022/03/22 09:12:11;;;;;;;;;;;8.70;59.60;;;;;;5024420;28;19917;-86
2022/03/22 09:14:37;;;;;;;;;;;8.80;59.30;;;;;;5021604;28;19917;-86
2022/03/22 09:17:04;;;;;;;;;;;8.90;57.90;;;;;;5020309;28;19953;-86
2022/03/22 09:19:29;;;;;;;;;;;8.90;57.80;;;;;;5018785;28;20385;-86
2022/03/22 09:21:55;;;;;;;;;;;9.00;57.00;;;;;;5037586;28;20103;-85
2022/03/22 09:24:20;;;;;;;;;;;9.00;57.50;;;;;;5012605;28;19913;-86
2022/03/22 09:26:46;;;;;;;;;;;9.10;58.10;;;;;;5028468;28;20267;-85
2022/03/22 09:29:11;;;;;;;;;;;9.10;58.50;;;;;;5024023;28;19924;-86
2022/03/22 09:31:37;;;;;;;;;;;9.20;59.00;;;;;;5031164;28;20419;-86
2022/03/22 09:34:02;;;;;;;;;;;9.30;58.20;;;;;;5027759;28;19917;-86
2022/03/22 09:36:28;;;;;;;;;;;9.40;58.40;;;;;;5021078;28;19925;-86
2022/03/22 09:38:53;;;;;;;;;;;9.50;57.90;;;;;;5031429;28;19924;-85
2022/03/22 09:41:21;;;;;;;;;;;9.50;56.20;;;;;;5028538;28;20000;-85
2022/03/22 09:43:48;;;;;;;;;;;9.50;55.90;;;;;;5026777;28;19921;-85
2022/03/22 09:46:20;;;;;;;;;;;9.60;55.30;;;;;;5015241;28;19917;-85
2022/03/22 09:48:46;;;;;;;;;;;9.60;55.70;;;;;;5020337;28;19921;-86
2022/03/22 09:53:56;;;;;;;;;;;9.80;56.50;;;;;;5041726;28;19911;-85
2022/03/22 09:56:22;;;;;;;;;;;9.90;57.00;;;;;;5011969;28;20004;-85
2022/03/22 09:58:48;;;;;;;;;;;10.00;57.70;;;;;;5015858;28;19917;-85
2022/03/22 10:01:13;;;;;;;;;;;10.10;57.70;;;;;;5021957;28;20292;-85
2022/03/22 10:03:39;;;;;;;;;;;10.20;57.20;;;;;;5020923;28;20080;-85
2022/03/22 10:06:06;;;;;;;;;;;10.30;57.20;;;;;;5038754;28;20028;-85
2022/03/22 10:08:31;;;;;;;;;;;10.30;57.30;;;;;;5018651;28;20003;-85
2022/03/22 10:11:01;;;;;;;;;;;10.40;54.10;;;;;;5022676;28;20499;-85
2022/03/22 10:13:28;;;;;;;;;;;10.50;52.70;;;;;;5021913;28;20461;-84
2022/03/22 10:16:00;;;;;;;;;;;10.60;52.30;;;;;;5026105;28;19914;-85
2022/03/22 10:18:26;;;;;;;;;;;10.70;51.80;;;;;;5027568;28;19921;-85
2022/03/22 10:21:01;;;;;;;;;;;10.80;52.00;;;;;;5009833;28;19922;-85
2022/03/22 10:23:28;;;;;;;;;;;10.90;51.30;;;;;;5018564;28;20373;-85
2022/03/22 10:26:03;;;;;;;;;;;11.00;51.80;;;;;;5026060;28;19913;-85
2022/03/22 10:28:29;;;;;;;;;;;11.10;53.40;;;;;;5025753;28;19956;-85
2022/03/22 10:30:57;;;;;;;;;;;11.20;52.10;;;;;;5012798;28;19980;-85
2022/03/22 10:33:23;;;;;;;;;;;11.30;50.90;;;;;;5017134;28;19917;-85
2022/03/22 10:35:48;;;;;;;;;;;11.40;50.10;;;;;;5021738;28;19948;-85
2022/03/22 10:38:15;;;;;;;;;;;11.50;49.40;;;;;;5015935;28;19925;-85
2022/03/22 10:40:44;;;;;;;;;;;11.60;48.20;;;;;;5026604;28;20316;-84
2022/03/22 10:43:10;;;;;;;;;;;11.70;49.80;;;;;;5017173;28;20013;-85
2022/03/22 10:45:42;;;;;;;;;;;11.90;50.00;;;;;;5018035;28;20425;-85
2022/03/22 10:48:08;;;;;;;;;;;11.90;47.60;;;;;;5021784;28;19957;-85
2022/03/22 10:50:37;;;;;;;;;;;12.00;48.90;;;;;;5030252;28;19991;-85
2022/03/22 10:53:03;;;;;;;;;;;12.10;50.80;;;;;;5021843;28;19913;-85
2022/03/22 10:55:28;;;;;;;;;;;12.20;48.90;;;;;;5029816;28;19913;-85
2022/03/22 10:57:55;;;;;;;;;;;12.20;47.60;;;;;;5013448;28;19921;-85
2022/03/22 11:00:21;;;;;;;;;;;12.30;45.60;;;;;;5022529;28;19913;-85
2022/03/22 11:02:48;;;;;;;;;;;12.30;45.10;;;;;;5014703;28;19928;-85
2022/03/22 11:05:14;;;;;;;;;;;12.40;46.50;;;;;;5029684;28;19920;-85
2022/03/22 11:07:40;;;;;;;;;;;12.50;46.50;;;;;;5022765;28;20496;-85
2022/03/22 11:10:06;;;;;;;;;;;12.60;46.20;;;;;;5017387;28;19917;-85
2022/03/22 11:12:33;;;;;;;;;;;12.60;44.60;;;;;;5017237;28;19959;-85
2022/03/22 11:14:58;;;;;;;;;;;12.70;44.70;;;;;;5014896;28;19914;-85
2022/03/22 11:17:25;;;;;;;;;;;12.80;45.40;;;;;;5021852;28;19927;-84
2022/03/22 11:19:51;;;;;;;;;;;12.80;45.50;;;;;;5027257;28;19913;-85
2022/03/22 11:22:17;;;;;;;;;;;12.90;46.00;;;;;;5028567;28;19932;-85
2022/03/22 11:24:42;;;;;;;;;;;12.90;45.60;;;;;;5027787;28;19924;-85
2022/03/22 11:27:08;;;;;;;;;;;13.00;45.20;;;;;;5022552;28;19921;-85
2022/03/22 11:29:36;;;;;;;;;;;13.10;45.40;;;;;;5017364;28;20419;-85
2022/03/22 11:34:50;;;;;;;;;;;13.20;41.60;;;;;;5021746;28;20005;-85
2022/03/22 11:37:27;;;;;;;;;;;13.30;42.80;;;;;;5029139;28;20391;-85
2022/03/22 11:42:37;;;;;;;;;;;13.40;43.00;;;;;;5016354;28;19978;-84
2022/03/22 11:45:07;;;;;;;;;;;13.50;42.40;;;;;;5024458;28;20017;-85
2022/03/22 11:47:40;;;;;;;;;;;13.60;41.90;;;;;;5038998;28;20381;-85
2022/03/22 11:50:06;;;;;;;;;;;13.70;42.90;;;;;;5019192;28;19963;-85
2022/03/22 11:52:41;;;;;;;;;;;13.80;43.90;;;;;;5027074;28;19964;-85
2022/03/22 11:55:06;;;;;;;;;;;13.80;42.60;;;;;;5022474;28;19917;-85
2022/03/22 11:57:45;;;;;;;;;;;13.90;42.10;;;;;;5032021;28;19917;-85
2022/03/22 12:00:11;;;;;;;;;;;14.00;44.40;;;;;;5015317;28;19921;-85
2022/03/22 12:02:38;;;;;;;;;;;14.00;42.60;;;;;;5026160;28;20001;-85
2022/03/22 12:05:04;;;;;;;;;;;14.10;41.00;;;;;;5021618;28;20409;-84
2022/03/22 12:07:34;;;;;;;;;;;14.10;40.60;;;;;;5027405;28;19981;-84
2022/03/22 12:10:04;;;;;;;;;;;14.10;43.70;;;;;;5028860;28;19921;-85
2022/03/22 12:12:30;;;;;;;;;;;14.20;44.50;;;;;;5011761;28;19928;-85
2022/03/22 12:14:57;;;;;;;;;;;14.20;43.40;;;;;;5027472;28;19916;-85
2022/03/22 12:17:23;;;;;;;;;;;14.30;44.40;;;;;;5016669;28;20288;-85
2022/03/22 12:19:48;;;;;;;;;;;14.20;46.40;;;;;;5038866;28;19913;-84
2022/03/22 12:22:14;;;;;;;;;;;14.30;47.00;;;;;;5024111;28;19929;-85
2022/03/22 12:27:09;;;;;;;;;;;14.50;46.50;;;;;;5071994;23;20047;-86
2022/03/22 12:29:38;;;;;;;;;;;14.50;45.10;;;;;;5052484;28;19967;-86
2022/03/22 12:32:06;;;;;;;;;;;14.60;46.50;;;;;;5035699;28;19917;-86
2022/03/22 12:34:34;;;;;;;;;;;14.70;45.00;;;;;;5053837;28;19960;-86
2022/03/22 12:36:59;;;;;;;;;;;14.70;44.20;;;;;;5046182;28;19939;-86
2022/03/22 12:39:25;;;;;;;;;;;14.60;42.20;;;;;;5051214;28;20392;-85
2022/03/22 12:41:51;;;;;;;;;;;14.70;44.80;;;;;;5047417;28;19917;-86
2022/03/22 12:44:16;;;;;;;;;;;14.70;47.70;;;;;;5047235;28;19996;-86
2022/03/22 12:46:42;;;;;;;;;;;14.70;46.70;;;;;;5046747;28;20007;-86
2022/03/22 12:49:09;;;;;;;;;;;14.70;47.20;;;;;;5036967;28;20347;-86
2022/03/22 12:51:35;;;;;;;;;;;14.70;44.10;;;;;;5031837;28;19917;-86
2022/03/22 12:54:04;;;;;;;;;;;14.60;43.80;;;;;;5020644;28;19916;-85
2022/03/22 12:56:31;;;;;;;;;;;14.60;44.60;;;;;;5044855;28;20266;-86
2022/03/22 12:58:56;;;;;;;;;;;14.70;44.80;;;;;;5023513;28;19929;-85
2022/03/22 13:01:22;;;;;;;;;;;14.70;45.50;;;;;;5034475;28;19917;-86
2022/03/22 13:03:47;;;;;;;;;;;14.80;45.10;;;;;;5033970;28;19961;-86
2022/03/22 13:06:13;;;;;;;;;;;14.90;43.20;;;;;;5044776;28;19920;-86
2022/03/22 13:11:29;;;;;;;;;;;14.90;46.30;;;;;;5050620;28;19932;-86
2022/03/22 13:16:49;;;;;;;;;;;15.00;45.90;;;;;;5052535;28;20296;-86
2022/03/22 13:19:17;;;;;;;;;;;15.00;44.40;;;;;;5044498;28;19913;-86
2022/03/22 13:21:42;;;;;;;;;;;14.90;43.50;;;;;;5023105;28;19963;-86
2022/03/22 13:24:09;;;;;;;;;;;14.80;43.60;;;;;;5039896;28;19921;-86
2022/03/22 13:26:39;;;;;;;;;;;14.80;44.70;;;;;;5047817;28;20336;-87
2022/03/22 13:29:15;;;;;;;;;;;14.80;44.70;;;;;;5045649;28;20006;-86
2022/03/22 13:31:56;;;;;;;;;;;14.80;43.20;;;;;;5040345;28;19920;-86
2022/03/22 13:34:25;;;;;;;;;;;14.80;44.50;;;;;;5045313;28;20374;-86
2022/03/22 13:37:02;;;;;;;;;;;14.80;42.30;;;;;;5040727;28;20389;-86
2022/03/22 13:39:27;;;;;;;;;;;14.80;42.50;;;;;;5039447;28;20385;-86
2022/03/22 13:42:03;;;;;;;;;;;14.70;45.50;;;;;;5041240;28;19931;-86
2022/03/22 13:44:28;;;;;;;;;;;14.80;43.90;;;;;;5044560;28;19939;-85
2022/03/22 13:46:54;;;;;;;;;;;14.80;46.10;;;;;;5034069;28;20373;-86
2022/03/22 13:49:20;;;;;;;;;;;14.90;46.30;;;;;;5029741;28;19921;-86
2022/03/22 13:51:47;;;;;;;;;;;14.90;44.60;;;;;;5039814;28;19966;-86
2022/03/22 13:54:14;;;;;;;;;;;14.80;43.00;;;;;;5041595;28;19928;-86
2022/03/22 13:56:39;;;;;;;;;;;14.80;41.90;;;;;;5037370;28;20367;-86
2022/03/22 13:59:11;;;;;;;;;;;14.90;43.70;;;;;;5045499;28;19921;-86
2022/03/22 14:01:37;;;;;;;;;;;14.90;41.90;;;;;;5051256;28;19913;-85
2022/03/22 14:04:03;;;;;;;;;;;14.90;41.10;;;;;;5035261;28;19924;-86
2022/03/22 14:06:28;;;;;;;;;;;14.90;42.60;;;;;;5043323;28;19917;-87
2022/03/22 14:08:54;;;;;;;;;;;14.90;42.60;;;;;;5042684;28;20296;-86
2022/03/22 14:11:20;;;;;;;;;;;14.90;41.70;;;;;;5048932;28;19917;-86
2022/03/22 14:13:45;;;;;;;;;;;14.90;41.20;;;;;;5039953;28;19925;-86
2022/03/22 14:16:11;;;;;;;;;;;14.90;40.50;;;;;;5047189;28;19963;-85
2022/03/22 14:18:36;;;;;;;;;;;15.00;41.10;;;;;;5049707;28;19924;-86
2022/03/22 14:21:02;;;;;;;;;;;15.00;38.60;;;;;;5041683;28;20439;-86
2022/03/22 14:23:27;;;;;;;;;;;15.00;39.60;;;;;;5033807;28;19940;-86
2022/03/22 14:25:56;;;;;;;;;;;15.00;39.50;;;;;;5033588;28;19921;-86
2022/03/22 14:28:25;;;;;;;;;;;15.10;39.10;;;;;;5032898;28;19913;-85
2022/03/22 14:30:53;;;;;;;;;;;15.00;39.60;;;;;;5042490;28;19917;-86
2022/03/22 14:33:18;;;;;;;;;;;15.10;43.00;;;;;;5053413;28;19974;-86
2022/03/22 14:35:47;;;;;;;;;;;15.10;43.40;;;;;;5035510;28;20422;-86
2022/03/22 14:38:31;;;;;;;;;;;15.10;41.80;;;;;;5038693;28;19916;-86
2022/03/22 14:40:57;;;;;;;;;;;15.00;40.00;;;;;;5053606;28;20026;-86
2022/03/22 14:43:23;;;;;;;;;;;15.00;41.10;;;;;;5051722;28;19943;-85
2022/03/22 14:45:49;;;;;;;;;;;15.00;43.80;;;;;;5045471;28;19993;-86
2022/03/22 14:48:16;;;;;;;;;;;15.00;43.20;;;;;;5015474;28;19932;-85
2022/03/22 14:50:41;;;;;;;;;;;15.10;39.20;;;;;;5046330;28;19920;-86
2022/03/22 14:55:52;;;;;;;;;;;15.00;41.20;;;;;;5045884;28;19943;-85
2022/03/22 15:01:01;;;;;;;;;;;15.10;40.20;;;;;;5056788;28;19951;-85
2022/03/22 15:03:27;;;;;;;;;;;15.10;38.90;;;;;;5041047;28;19917;-86
2022/03/22 15:05:59;;;;;;;;;;;15.10;39.40;;;;;;5037711;28;20376;-86
2022/03/22 15:08:25;;;;;;;;;;;15.10;38.80;;;;;;5037001;28;19959;-86
2022/03/22 15:10:51;;;;;;;;;;;15.10;41.20;;;;;;5036122;28;20133;-86
2022/03/22 15:13:17;;;;;;;;;;;15.00;41.10;;;;;;5037432;28;19913;-87